sensor_id;sensor_type;location;lat;lon;timestamp;pressure;altitude;pressure_sealevel;temperature;humidity
77770;BME280;66961;51.482;9.160;2024-02-14T00:02:01;99399.66;;;5.61;86.17
77770;BME280;66961;51.482;9.160;2024-02-14T00:04:26;99398.81;;;5.60;86.15
77770;BME280;66961;51.482;9.160;2024-02-14T00:06:51;99393.56;;;5.60;85.61
77770;BME280;66961;51.482;9.160;2024-02-14T00:09:17;99390.94;;;5.60;85.54
77770;BME280;66961;51.482;9.160;2024-02-14T00:11:42;99389.00;;;5.62;85.71
77770;BME280;66961;51.482;9.160;2024-02-14T00:14:07;99386.38;;;5.62;85.88
77770;BME280;66961;51.482;9.160;2024-02-14T00:16:32;99384.16;;;5.68;85.74
77770;BME280;66961;51.482;9.160;2024-02-14T00:18:58;99380.41;;;5.70;85.24
77770;BME280;66961;51.482;9.160;2024-02-14T00:21:23;99377.63;;;5.72;85.61
77770;BME280;66961;51.482;9.160;2024-02-14T00:23:49;99370.53;;;5.72;85.59
77770;BME280;66961;51.482;9.160;2024-02-14T00:26:14;99372.06;;;5.75;85.44
77770;BME280;66961;51.482;9.160;2024-02-14T00:28:39;99358.91;;;5.75;85.91
77770;BME280;66961;51.482;9.160;2024-02-14T00:31:05;99365.16;;;5.74;86.27
77770;BME280;66961;51.482;9.160;2024-02-14T00:33:30;99365.56;;;5.79;86.02
77770;BME280;66961;51.482;9.160;2024-02-14T00:35:56;99353.38;;;5.78;86.17
77770;BME280;66961;51.482;9.160;2024-02-14T00:38:21;99365.13;;;5.83;85.92
77770;BME280;66961;51.482;9.160;2024-02-14T00:40:46;99354.06;;;5.80;86.37
77770;BME280;66961;51.482;9.160;2024-02-14T00:43:11;99354.06;;;5.80;86.64
77770;BME280;66961;51.482;9.160;2024-02-14T00:45:37;99354.59;;;5.83;86.62
77770;BME280;66961;51.482;9.160;2024-02-14T00:48:02;99338.28;;;5.80;86.72
77770;BME280;66961;51.482;9.160;2024-02-14T00:50:27;99341.31;;;5.85;86.34
77770;BME280;66961;51.482;9.160;2024-02-14T00:52:53;99351.44;;;5.89;85.84
77770;BME280;66961;51.482;9.160;2024-02-14T00:55:18;99338.16;;;5.91;86.37
77770;BME280;66961;51.482;9.160;2024-02-14T00:57:43;99341.19;;;5.96;85.57
77770;BME280;66961;51.482;9.160;2024-02-14T01:00:09;99339.91;;;6.00;85.37
77770;BME280;66961;51.482;9.160;2024-02-14T01:02:34;99332.56;;;6.04;85.10
77770;BME280;66961;51.482;9.160;2024-02-14T01:04:59;99327.31;;;6.04;85.11
77770;BME280;66961;51.482;9.160;2024-02-14T01:07:24;99325.22;;;6.07;84.96
77770;BME280;66961;51.482;9.160;2024-02-14T01:09:50;99322.03;;;6.04;85.77
77770;BME280;66961;51.482;9.160;2024-02-14T01:12:15;99325.91;;;6.09;85.09
77770;BME280;66961;51.482;9.160;2024-02-14T01:14:40;99324.94;;;6.10;84.99
77770;BME280;66961;51.482;9.160;2024-02-14T01:17:06;99325.75;;;6.11;85.23
77770;BME280;66961;51.482;9.160;2024-02-14T01:19:31;99313.03;;;6.06;85.62
77770;BME280;66961;51.482;9.160;2024-02-14T01:21:56;99314.41;;;6.10;86.34
77770;BME280;66961;51.482;9.160;2024-02-14T01:24:21;99323.97;;;6.11;86.14
77770;BME280;66961;51.482;9.160;2024-02-14T01:26:47;99321.72;;;6.16;85.79
77770;BME280;66961;51.482;9.160;2024-02-14T01:29:12;99312.41;;;6.22;85.57
77770;BME280;66961;51.482;9.160;2024-02-14T01:31:37;99320.38;;;6.30;84.65
77770;BME280;66961;51.482;9.160;2024-02-14T01:34:02;99317.31;;;6.35;84.71
77770;BME280;66961;51.482;9.160;2024-02-14T01:36:28;99325.06;;;6.36;85.20
77770;BME280;66961;51.482;9.160;2024-02-14T01:38:54;99320.63;;;6.37;85.22
77770;BME280;66961;51.482;9.160;2024-02-14T01:41:19;99324.91;;;6.38;84.94
77770;BME280;66961;51.482;9.160;2024-02-14T01:43:44;99314.53;;;6.36;85.98
77770;BME280;66961;51.482;9.160;2024-02-14T01:46:10;99296.50;;;6.41;85.43
77770;BME280;66961;51.482;9.160;2024-02-14T01:48:35;99305.38;;;6.40;85.66
77770;BME280;66961;51.482;9.160;2024-02-14T01:51:02;99294.44;;;6.35;86.73
77770;BME280;66961;51.482;9.160;2024-02-14T01:53:28;99309.50;;;6.43;85.79
77770;BME280;66961;51.482;9.160;2024-02-14T01:55:54;99298.53;;;6.47;85.90
77770;BME280;66961;51.482;9.160;2024-02-14T01:58:20;99293.81;;;6.51;85.60
77770;BME280;66961;51.482;9.160;2024-02-14T02:00:45;99299.66;;;6.45;86.43
77770;BME280;66961;51.482;9.160;2024-02-14T02:03:11;99297.56;;;6.48;86.14
77770;BME280;66961;51.482;9.160;2024-02-14T02:05:36;99285.22;;;6.49;86.79
77770;BME280;66961;51.482;9.160;2024-02-14T02:08:01;99285.69;;;6.44;87.02
77770;BME280;66961;51.482;9.160;2024-02-14T02:10:26;99284.84;;;6.44;86.97
77770;BME280;66961;51.482;9.160;2024-02-14T02:12:58;99272.38;;;6.46;87.27
77770;BME280;66961;51.482;9.160;2024-02-14T02:15:23;99279.28;;;6.47;87.21
77770;BME280;66961;51.482;9.160;2024-02-14T02:17:48;99278.31;;;6.48;87.13
77770;BME280;66961;51.482;9.160;2024-02-14T02:20:15;99274.63;;;6.41;87.88
77770;BME280;66961;51.482;9.160;2024-02-14T02:22:46;99262.97;;;6.43;87.65
77770;BME280;66961;51.482;9.160;2024-02-14T02:25:11;99267.41;;;6.43;88.03
77770;BME280;66961;51.482;9.160;2024-02-14T02:27:36;99269.50;;;6.39;88.54
77770;BME280;66961;51.482;9.160;2024-02-14T02:30:02;99264.38;;;6.38;88.80
77770;BME280;66961;51.482;9.160;2024-02-14T02:32:27;99257.47;;;6.37;88.79
77770;BME280;66961;51.482;9.160;2024-02-14T02:34:52;99254.00;;;6.36;88.48
77770;BME280;66961;51.482;9.160;2024-02-14T02:37:18;99248.88;;;6.35;89.28
77770;BME280;66961;51.482;9.160;2024-02-14T02:39:43;99249.03;;;6.33;88.68
77770;BME280;66961;51.482;9.160;2024-02-14T02:42:08;99242.78;;;6.34;89.02
77770;BME280;66961;51.482;9.160;2024-02-14T02:44:33;99245.56;;;6.32;88.99
77770;BME280;66961;51.482;9.160;2024-02-14T02:46:59;99241.56;;;6.28;89.63
77770;BME280;66961;51.482;9.160;2024-02-14T02:49:24;99246.84;;;6.28;89.70
77770;BME280;66961;51.482;9.160;2024-02-14T02:51:49;99245.88;;;6.29;89.78
77770;BME280;66961;51.482;9.160;2024-02-14T02:54:14;99252.78;;;6.30;89.86
77770;BME280;66961;51.482;9.160;2024-02-14T02:56:40;99233.38;;;6.31;89.37
77770;BME280;66961;51.482;9.160;2024-02-14T02:59:05;99228.41;;;6.28;89.36
77770;BME280;66961;51.482;9.160;2024-02-14T03:01:36;99240.31;;;6.32;89.52
77770;BME280;66961;51.482;9.160;2024-02-14T03:04:02;99239.22;;;6.25;90.56
77770;BME280;66961;51.482;9.160;2024-02-14T03:06:27;99236.31;;;6.28;89.58
77770;BME280;66961;51.482;9.160;2024-02-14T03:08:53;99234.50;;;6.29;89.91
77770;BME280;66961;51.482;9.160;2024-02-14T03:11:18;99231.03;;;6.28;89.62
77770;BME280;66961;51.482;9.160;2024-02-14T03:13:43;99241.13;;;6.33;89.64
77770;BME280;66961;51.482;9.160;2024-02-14T03:16:08;99234.22;;;6.32;89.03
77770;BME280;66961;51.482;9.160;2024-02-14T03:18:34;99227.16;;;6.32;88.79
77770;BME280;66961;51.482;9.160;2024-02-14T03:20:59;99240.97;;;6.35;88.99
77770;BME280;66961;51.482;9.160;2024-02-14T03:23:24;99231.00;;;6.38;89.03
77770;BME280;66961;51.482;9.160;2024-02-14T03:25:49;99227.00;;;6.34;89.52
77770;BME280;66961;51.482;9.160;2024-02-14T03:28:15;99222.25;;;6.38;88.63
77770;BME280;66961;51.482;9.160;2024-02-14T03:30:40;99228.66;;;6.35;89.43
77770;BME280;66961;51.482;9.160;2024-02-14T03:33:05;99234.75;;;6.36;89.32
77770;BME280;66961;51.482;9.160;2024-02-14T03:35:31;99235.56;;;6.36;89.37
77770;BME280;66961;51.482;9.160;2024-02-14T03:37:56;99223.38;;;6.35;89.12
77770;BME280;66961;51.482;9.160;2024-02-14T03:40:21;99235.41;;;6.38;88.76
77770;BME280;66961;51.482;9.160;2024-02-14T03:42:46;99223.78;;;6.40;89.08
77770;BME280;66961;51.482;9.160;2024-02-14T03:45:12;99225.97;;;6.45;88.63
77770;BME280;66961;51.482;9.160;2024-02-14T03:47:37;99235.81;;;6.43;88.91
77770;BME280;66961;51.482;9.160;2024-02-14T03:50:03;99222.78;;;6.41;88.87
77770;BME280;66961;51.482;9.160;2024-02-14T03:52:28;99223.91;;;6.39;89.21
77770;BME280;66961;51.482;9.160;2024-02-14T03:54:53;99238.97;;;6.46;88.74
77770;BME280;66961;51.482;9.160;2024-02-14T03:57:19;99228.28;;;6.48;88.44
77770;BME280;66961;51.482;9.160;2024-02-14T03:59:44;99215.56;;;6.43;89.50
77770;BME280;66961;51.482;9.160;2024-02-14T04:02:10;99209.78;;;6.40;89.79
77770;BME280;66961;51.482;9.160;2024-02-14T04:04:41;99211.88;;;6.36;89.43
77770;BME280;66961;51.482;9.160;2024-02-14T04:07:07;99211.19;;;6.34;89.55
77770;BME280;66961;51.482;9.160;2024-02-14T04:09:33;99223.00;;;6.30;90.13
77770;BME280;66961;51.482;9.160;2024-02-14T04:11:58;99225.78;;;6.28;90.55
77770;BME280;66961;51.482;9.160;2024-02-14T04:14:23;99235.13;;;6.41;89.30
77770;BME280;66961;51.482;9.160;2024-02-14T04:16:49;99235.03;;;6.32;90.22
77770;BME280;66961;51.482;9.160;2024-02-14T04:19:14;99235.72;;;6.35;90.51
77770;BME280;66961;51.482;9.160;2024-02-14T04:21:39;99234.88;;;6.34;90.29
77770;BME280;66961;51.482;9.160;2024-02-14T04:24:04;99230.44;;;6.35;90.66
77770;BME280;66961;51.482;9.160;2024-02-14T04:26:30;99229.31;;;6.37;90.57
77770;BME280;66961;51.482;9.160;2024-02-14T04:28:55;99225.50;;;6.31;91.09
77770;BME280;66961;51.482;9.160;2024-02-14T04:31:20;99223.91;;;6.39;90.18
77770;BME280;66961;51.482;9.160;2024-02-14T04:33:46;99231.81;;;6.39;90.47
77770;BME280;66961;51.482;9.160;2024-02-14T04:36:11;99228.19;;;6.40;90.64
77770;BME280;66961;51.482;9.160;2024-02-14T04:38:36;99221.97;;;6.41;90.74
77770;BME280;66961;51.482;9.160;2024-02-14T04:41:01;99215.34;;;6.37;91.38
77770;BME280;66961;51.482;9.160;2024-02-14T04:43:27;99223.09;;;6.38;91.14
77770;BME280;66961;51.482;9.160;2024-02-14T04:45:52;99237.22;;;6.37;91.66
77770;BME280;66961;51.482;9.160;2024-02-14T04:48:17;99238.88;;;6.38;91.31
77770;BME280;66961;51.482;9.160;2024-02-14T04:50:43;99250.25;;;6.39;91.52
77770;BME280;66961;51.482;9.160;2024-02-14T04:53:08;99246.09;;;6.36;91.60
77770;BME280;66961;51.482;9.160;2024-02-14T04:55:33;99232.94;;;6.36;91.85
77770;BME280;66961;51.482;9.160;2024-02-14T04:57:59;99234.06;;;6.34;91.78
77770;BME280;66961;51.482;9.160;2024-02-14T05:00:24;99229.53;;;6.26;92.50
77770;BME280;66961;51.482;9.160;2024-02-14T05:02:49;99231.66;;;6.22;92.87
77770;BME280;66961;51.482;9.160;2024-02-14T05:05:14;99228.34;;;6.20;92.75
77770;BME280;66961;51.482;9.160;2024-02-14T05:07:40;99232.66;;;6.21;93.15
77770;BME280;66961;51.482;9.160;2024-02-14T05:10:05;99227.97;;;6.15;93.86
77770;BME280;66961;51.482;9.160;2024-02-14T05:12:31;99223.81;;;6.13;93.88
77770;BME280;66961;51.482;9.160;2024-02-14T05:14:56;99235.19;;;6.13;94.18
77770;BME280;66961;51.482;9.160;2024-02-14T05:17:21;99216.63;;;6.15;93.86
77770;BME280;66961;51.482;9.160;2024-02-14T05:19:46;99220.75;;;6.17;93.77
77770;BME280;66961;51.482;9.160;2024-02-14T05:22:12;99223.81;;;6.13;93.88
77770;BME280;66961;51.482;9.160;2024-02-14T05:24:37;99222.84;;;6.14;94.11
77770;BME280;66961;51.482;9.160;2024-02-14T05:27:03;99236.00;;;6.14;93.88
77770;BME280;66961;51.482;9.160;2024-02-14T05:29:28;99218.94;;;6.18;93.43
77770;BME280;66961;51.482;9.160;2024-02-14T05:31:54;99211.66;;;6.12;94.07
77770;BME280;66961;51.482;9.160;2024-02-14T05:34:19;99222.47;;;6.09;94.31
77770;BME280;66961;51.482;9.160;2024-02-14T05:36:44;99226.59;;;6.11;94.25
77770;BME280;66961;51.482;9.160;2024-02-14T05:39:09;99224.94;;;6.10;94.19
77770;BME280;66961;51.482;9.160;2024-02-14T05:41:35;99224.50;;;6.15;93.84
77770;BME280;66961;51.482;9.160;2024-02-14T05:44:00;99227.13;;;6.15;94.03
77770;BME280;66961;51.482;9.160;2024-02-14T05:46:25;99227.28;;;6.13;94.13
77770;BME280;66961;51.482;9.160;2024-02-14T05:48:51;99231.28;;;6.17;94.14
77770;BME280;66961;51.482;9.160;2024-02-14T05:51:16;99225.19;;;6.17;94.09
77770;BME280;66961;51.482;9.160;2024-02-14T05:53:41;99226.84;;;6.18;94.28
77770;BME280;66961;51.482;9.160;2024-02-14T05:56:07;99227.81;;;6.17;93.98
77770;BME280;66961;51.482;9.160;2024-02-14T05:58:32;99227.81;;;6.17;94.63
77770;BME280;66961;51.482;9.160;2024-02-14T06:00:57;99228.50;;;6.19;95.16
77770;BME280;66961;51.482;9.160;2024-02-14T06:03:22;99226.03;;;6.17;95.20
77770;BME280;66961;51.482;9.160;2024-02-14T06:05:48;99222.72;;;6.15;95.60
77770;BME280;66961;51.482;9.160;2024-02-14T06:08:13;99220.59;;;6.19;95.67
77770;BME280;66961;51.482;9.160;2024-02-14T06:10:38;99234.22;;;6.14;96.44
77770;BME280;66961;51.482;9.160;2024-02-14T06:13:04;99231.19;;;6.09;97.01
77770;BME280;66961;51.482;9.160;2024-02-14T06:15:29;99239.31;;;6.16;97.31
77770;BME280;66961;51.482;9.160;2024-02-14T06:17:55;99234.88;;;6.16;97.06
77770;BME280;66961;51.482;9.160;2024-02-14T06:20:20;99234.06;;;6.16;97.71
77770;BME280;66961;51.482;9.160;2024-02-14T06:22:45;99259.41;;;6.17;97.57
77770;BME280;66961;51.482;9.160;2024-02-14T06:25:11;99252.88;;;6.21;96.98
77770;BME280;66961;51.482;9.160;2024-02-14T06:27:36;99253.16;;;6.18;97.24
77770;BME280;66961;51.482;9.160;2024-02-14T06:30:01;99263.06;;;6.24;97.32
77770;BME280;66961;51.482;9.160;2024-02-14T06:32:27;99252.41;;;6.25;97.56
77770;BME280;66961;51.482;9.160;2024-02-14T06:34:52;99243.47;;;6.18;98.12
77770;BME280;66961;51.482;9.160;2024-02-14T06:37:17;99269.84;;;6.26;98.09
77770;BME280;66961;51.482;9.160;2024-02-14T06:39:43;99268.88;;;6.27;98.25
77770;BME280;66961;51.482;9.160;2024-02-14T06:42:08;99260.00;;;6.28;98.25
77770;BME280;66961;51.482;9.160;2024-02-14T06:44:33;99272.47;;;6.26;98.59
77770;BME280;66961;51.482;9.160;2024-02-14T06:46:58;99269.53;;;6.29;98.33
77770;BME280;66961;51.482;9.160;2024-02-14T06:49:24;99272.19;;;6.29;98.98
77770;BME280;66961;51.482;9.160;2024-02-14T06:51:49;99268.81;;;6.19;100.00
77770;BME280;66961;51.482;9.160;2024-02-14T06:54:14;99259.69;;;6.14;100.00
77770;BME280;66961;51.482;9.160;2024-02-14T06:56:39;99267.28;;;6.17;100.00
77770;BME280;66961;51.482;9.160;2024-02-14T06:59:04;99281.66;;;6.22;100.00
77770;BME280;66961;51.482;9.160;2024-02-14T07:01:30;99266.31;;;6.18;100.00
77770;BME280;66961;51.482;9.160;2024-02-14T07:03:55;99278.34;;;6.20;100.00
77770;BME280;66961;51.482;9.160;2024-02-14T07:06:21;99283.91;;;6.17;100.00
77770;BME280;66961;51.482;9.160;2024-02-14T07:08:46;99289.91;;;6.27;100.00
77770;BME280;66961;51.482;9.160;2024-02-14T07:11:11;99283.31;;;6.23;100.00
77770;BME280;66961;51.482;9.160;2024-02-14T07:13:37;99287.44;;;6.26;100.00
77770;BME280;66961;51.482;9.160;2024-02-14T07:16:02;99290.16;;;6.34;100.00
77770;BME280;66961;51.482;9.160;2024-02-14T07:18:27;99288.91;;;6.38;100.00
77770;BME280;66961;51.482;9.160;2024-02-14T07:20:54;99290.41;;;6.41;100.00
77770;BME280;66961;51.482;9.160;2024-02-14T07:23:20;99281.09;;;6.46;100.00
77770;BME280;66961;51.482;9.160;2024-02-14T07:25:45;99270.72;;;6.45;100.00
77770;BME280;66961;51.482;9.160;2024-02-14T07:28:10;99286.34;;;6.46;100.00
77770;BME280;66961;51.482;9.160;2024-02-14T07:30:36;99278.06;;;6.41;100.00
77770;BME280;66961;51.482;9.160;2024-02-14T07:33:01;99286.50;;;6.45;100.00
77770;BME280;66961;51.482;9.160;2024-02-14T07:35:26;99296.88;;;6.46;100.00
77770;BME280;66961;51.482;9.160;2024-02-14T07:37:52;99300.72;;;6.52;100.00
77770;BME280;66961;51.482;9.160;2024-02-14T07:40:17;99297.66;;;6.56;100.00
77770;BME280;66961;51.482;9.160;2024-02-14T07:42:42;99299.75;;;6.53;100.00
77770;BME280;66961;51.482;9.160;2024-02-14T07:45:08;99292.97;;;6.50;100.00
77770;BME280;66961;51.482;9.160;2024-02-14T07:47:33;99301.13;;;6.57;100.00
77770;BME280;66961;51.482;9.160;2024-02-14T07:49:58;99297.22;;;6.61;100.00
77770;BME280;66961;51.482;9.160;2024-02-14T07:52:24;99299.69;;;6.62;100.00
77770;BME280;66961;51.482;9.160;2024-02-14T07:54:53;99308.13;;;6.66;100.00
77770;BME280;66961;51.482;9.160;2024-02-14T07:57:18;99309.19;;;6.73;100.00
77770;BME280;66961;51.482;9.160;2024-02-14T07:59:43;99312.19;;;6.78;100.00
77770;BME280;66961;51.482;9.160;2024-02-14T08:02:09;99317.16;;;6.81;100.00
77770;BME280;66961;51.482;9.160;2024-02-14T08:04:34;99318.34;;;6.87;100.00
77770;BME280;66961;51.482;9.160;2024-02-14T08:06:59;99309.47;;;6.88;100.00
77770;BME280;66961;51.482;9.160;2024-02-14T08:09:25;99330.94;;;6.93;100.00
77770;BME280;66961;51.482;9.160;2024-02-14T08:11:50;99318.06;;;6.90;100.00
77770;BME280;66961;51.482;9.160;2024-02-14T08:14:15;99309.19;;;6.91;100.00
77770;BME280;66961;51.482;9.160;2024-02-14T08:16:40;99313.84;;;6.97;100.00
77770;BME280;66961;51.482;9.160;2024-02-14T08:19:06;99304.44;;;6.94;100.00
77770;BME280;66961;51.482;9.160;2024-02-14T08:21:31;99318.13;;;6.98;100.00
77770;BME280;66961;51.482;9.160;2024-02-14T08:23:56;99311.88;;;6.99;100.00
77770;BME280;66961;51.482;9.160;2024-02-14T08:26:22;99318.38;;;7.05;100.00
77770;BME280;66961;51.482;9.160;2024-02-14T08:28:47;99326.66;;;7.10;100.00
77770;BME280;66961;51.482;9.160;2024-02-14T08:31:12;99330.72;;;7.22;100.00
77770;BME280;66961;51.482;9.160;2024-02-14T08:33:37;99322.66;;;7.23;100.00
77770;BME280;66961;51.482;9.160;2024-02-14T08:36:04;99328.78;;;7.32;100.00
77770;BME280;66961;51.482;9.160;2024-02-14T08:38:29;99334.06;;;7.32;100.00
77770;BME280;66961;51.482;9.160;2024-02-14T08:40:55;99337.53;;;7.32;100.00
77770;BME280;66961;51.482;9.160;2024-02-14T08:43:20;99323.22;;;7.35;100.00
77770;BME280;66961;51.482;9.160;2024-02-14T08:45:45;99333.16;;;7.41;100.00
77770;BME280;66961;51.482;9.160;2024-02-14T08:48:10;99337.81;;;7.47;100.00
77770;BME280;66961;51.482;9.160;2024-02-14T08:50:36;99329.16;;;7.55;100.00
77770;BME280;66961;51.482;9.160;2024-02-14T08:53:01;99334.25;;;7.56;99.50
77770;BME280;66961;51.482;9.160;2024-02-14T08:55:26;99337.94;;;7.63;99.72
77770;BME280;66961;51.482;9.160;2024-02-14T08:57:52;99338.47;;;7.67;99.99
77770;BME280;66961;51.482;9.160;2024-02-14T09:00:17;99344.56;;;7.68;99.08
77770;BME280;66961;51.482;9.160;2024-02-14T09:02:42;99348.50;;;7.63;99.78
77770;BME280;66961;51.482;9.160;2024-02-14T09:05:08;99335.69;;;7.69;100.00
77770;BME280;66961;51.482;9.160;2024-02-14T09:07:33;99341.00;;;7.77;99.46
77770;BME280;66961;51.482;9.160;2024-02-14T09:09:58;99335.28;;;7.89;98.64
77770;BME280;66961;51.482;9.160;2024-02-14T09:12:23;99342.00;;;8.10;98.05
77770;BME280;66961;51.482;9.160;2024-02-14T09:14:49;99340.09;;;8.20;97.66
77770;BME280;66961;51.482;9.160;2024-02-14T09:17:15;99336.84;;;8.34;97.05
77770;BME280;66961;51.482;9.160;2024-02-14T09:19:40;99346.78;;;8.40;97.06
77770;BME280;66961;51.482;9.160;2024-02-14T09:22:06;99348.03;;;8.28;96.24
77770;BME280;66961;51.482;9.160;2024-02-14T09:24:31;99338.13;;;8.22;97.11
77770;BME280;66961;51.482;9.160;2024-02-14T09:26:56;99343.25;;;8.23;97.53
77770;BME280;66961;51.482;9.160;2024-02-14T09:29:22;99339.97;;;8.29;97.76
77770;BME280;66961;51.482;9.160;2024-02-14T09:31:47;99357.50;;;8.39;98.09
77770;BME280;66961;51.482;9.160;2024-02-14T09:34:13;99348.03;;;8.28;98.32
77770;BME280;66961;51.482;9.160;2024-02-14T09:36:38;99355.41;;;8.16;100.00
77770;BME280;66961;51.482;9.160;2024-02-14T09:39:03;99352.06;;;8.06;100.00
77770;BME280;66961;51.482;9.160;2024-02-14T09:41:32;99342.22;;;8.16;100.00
77770;BME280;66961;51.482;9.160;2024-02-14T09:43:58;99341.03;;;8.11;100.00
77770;BME280;66961;51.482;9.160;2024-02-14T09:46:24;99345.88;;;8.23;100.00
77770;BME280;66961;51.482;9.160;2024-02-14T09:48:50;99345.03;;;8.23;100.00
77770;BME280;66961;51.482;9.160;2024-02-14T09:51:17;99352.16;;;8.22;100.00
77770;BME280;66961;51.482;9.160;2024-02-14T09:53:42;99352.63;;;8.18;100.00
77770;BME280;66961;51.482;9.160;2024-02-14T09:56:11;99361.16;;;8.12;100.00
77770;BME280;66961;51.482;9.160;2024-02-14T09:58:37;99360.84;;;8.15;100.00
77770;BME280;66961;51.482;9.160;2024-02-14T10:01:02;99361.78;;;8.06;100.00
77770;BME280;66961;51.482;9.160;2024-02-14T10:03:28;99354.59;;;8.16;100.00
77770;BME280;66961;51.482;9.160;2024-02-14T10:05:54;99361.72;;;8.23;100.00
77770;BME280;66961;51.482;9.160;2024-02-14T10:08:19;99349.03;;;8.27;100.00
77770;BME280;66961;51.482;9.160;2024-02-14T10:10:44;99353.53;;;8.35;100.00
77770;BME280;66961;51.482;9.160;2024-02-14T10:13:10;99357.69;;;8.45;100.00
77770;BME280;66961;51.482;9.160;2024-02-14T10:15:35;99346.88;;;8.65;100.00
77770;BME280;66961;51.482;9.160;2024-02-14T10:18:01;99359.31;;;8.80;99.16
77770;BME280;66961;51.482;9.160;2024-02-14T10:20:27;99358.88;;;9.09;100.00
77770;BME280;66961;51.482;9.160;2024-02-14T10:23:00;99356.88;;;9.11;97.51
77770;BME280;66961;51.482;9.160;2024-02-14T10:25:25;99363.66;;;9.06;97.53
77770;BME280;66961;51.482;9.160;2024-02-14T10:27:51;99369.56;;;9.00;96.89
77770;BME280;66961;51.482;9.160;2024-02-14T10:30:16;99374.53;;;9.03;99.24
77770;BME280;66961;51.482;9.160;2024-02-14T10:32:42;99377.16;;;8.94;98.34
77770;BME280;66961;51.482;9.160;2024-02-14T10:35:07;99377.34;;;9.01;98.43
77770;BME280;66961;51.482;9.160;2024-02-14T10:37:33;99379.16;;;8.92;97.90
77770;BME280;66961;51.482;9.160;2024-02-14T10:39:59;99384.09;;;8.95;98.61
77770;BME280;66961;51.482;9.160;2024-02-14T10:42:26;99385.47;;;9.16;97.41
77770;BME280;66961;51.482;9.160;2024-02-14T10:44:51;99388.31;;;9.22;97.51
77770;BME280;66961;51.482;9.160;2024-02-14T10:47:19;99396.91;;;9.24;96.55
77770;BME280;66961;51.482;9.160;2024-02-14T10:49:46;99392.75;;;9.22;96.19
77770;BME280;66961;51.482;9.160;2024-02-14T10:52:14;99392.75;;;9.22;97.46
77770;BME280;66961;51.482;9.160;2024-02-14T10:54:43;99386.16;;;9.18;98.02
77770;BME280;66961;51.482;9.160;2024-02-14T10:57:11;99386.81;;;9.20;98.15
77770;BME280;66961;51.482;9.160;2024-02-14T10:59:43;99386.16;;;9.26;97.85
77770;BME280;66961;51.482;9.160;2024-02-14T11:02:10;99383.34;;;9.27;98.39
77770;BME280;66961;51.482;9.160;2024-02-14T11:04:35;99379.72;;;9.28;97.13
77770;BME280;66961;51.482;9.160;2024-02-14T11:07:01;99375.09;;;9.63;96.36
77770;BME280;66961;51.482;9.160;2024-02-14T11:09:33;99379.84;;;9.92;94.78
77770;BME280;66961;51.482;9.160;2024-02-14T11:12:00;99394.56;;;9.94;93.63
77770;BME280;66961;51.482;9.160;2024-02-14T11:14:31;99382.63;;;10.15;92.49
77770;BME280;66961;51.482;9.160;2024-02-14T11:16:56;99389.22;;;10.19;92.88
77770;BME280;66961;51.482;9.160;2024-02-14T11:19:33;99405.28;;;10.34;92.67
77770;BME280;66961;51.482;9.160;2024-02-14T11:21:59;99388.59;;;10.25;91.85
77770;BME280;66961;51.482;9.160;2024-02-14T11:24:28;99396.84;;;10.14;93.16
77770;BME280;66961;51.482;9.160;2024-02-14T11:26:55;99396.34;;;10.10;94.70
77770;BME280;66961;51.482;9.160;2024-02-14T11:29:21;99399.50;;;10.06;94.60
77770;BME280;66961;51.482;9.160;2024-02-14T11:32:00;99392.22;;;10.00;95.21
77770;BME280;66961;51.482;9.160;2024-02-14T11:34:27;99397.38;;;9.93;94.87
77770;BME280;66961;51.482;9.160;2024-02-14T11:36:52;99400.38;;;9.82;96.18
77770;BME280;66961;51.482;9.160;2024-02-14T11:39:17;99402.38;;;9.80;95.32
77770;BME280;66961;51.482;9.160;2024-02-14T11:41:42;99403.53;;;9.69;96.38
77770;BME280;66961;51.482;9.160;2024-02-14T11:44:08;99402.88;;;9.75;97.10
77770;BME280;66961;51.482;9.160;2024-02-14T11:46:34;99402.38;;;9.63;97.37
77770;BME280;66961;51.482;9.160;2024-02-14T11:49:02;99395.44;;;9.71;97.60
77770;BME280;66961;51.482;9.160;2024-02-14T11:51:28;99383.84;;;9.72;97.52
77770;BME280;66961;51.482;9.160;2024-02-14T11:53:54;99392.63;;;9.64;96.91
77770;BME280;66961;51.482;9.160;2024-02-14T11:56:22;99390.28;;;9.61;96.22
77770;BME280;66961;51.482;9.160;2024-02-14T11:58:48;99394.75;;;9.60;97.39
77770;BME280;66961;51.482;9.160;2024-02-14T12:01:13;99395.75;;;9.59;97.58
77770;BME280;66961;51.482;9.160;2024-02-14T12:03:39;99394.75;;;9.60;97.26
77770;BME280;66961;51.482;9.160;2024-02-14T12:06:04;99390.97;;;9.71;97.13
77770;BME280;66961;51.482;9.160;2024-02-14T12:08:30;99383.50;;;9.67;96.66
77770;BME280;66961;51.482;9.160;2024-02-14T12:10:55;99385.16;;;9.76;97.38
77770;BME280;66961;51.482;9.160;2024-02-14T12:13:21;99389.47;;;9.69;96.57
77770;BME280;66961;51.482;9.160;2024-02-14T12:15:51;99391.63;;;9.65;96.32
77770;BME280;66961;51.482;9.160;2024-02-14T12:18:17;99401.88;;;9.68;97.68
77770;BME280;66961;51.482;9.160;2024-02-14T12:20:42;99398.91;;;9.63;97.66
77770;BME280;66961;51.482;9.160;2024-02-14T12:23:08;99395.75;;;9.68;97.44
77770;BME280;66961;51.482;9.160;2024-02-14T12:25:38;99393.94;;;9.76;96.38
77770;BME280;66961;51.482;9.160;2024-02-14T12:28:04;99389.31;;;9.86;96.69
77770;BME280;66961;51.482;9.160;2024-02-14T12:33:10;99393.38;;;10.30;93.94
77770;BME280;66961;51.482;9.160;2024-02-14T12:35:35;99387.06;;;10.39;93.91
77770;BME280;66961;51.482;9.160;2024-02-14T12:38:01;99382.50;;;10.55;93.31
77770;BME280;66961;51.482;9.160;2024-02-14T12:40:26;99386.63;;;10.58;93.12
77770;BME280;66961;51.482;9.160;2024-02-14T12:42:51;99385.44;;;10.69;92.38
77770;BME280;66961;51.482;9.160;2024-02-14T12:45:16;99388.50;;;10.88;91.28
77770;BME280;66961;51.482;9.160;2024-02-14T12:47:42;99389.00;;;10.84;91.57
77770;BME280;66961;51.482;9.160;2024-02-14T12:50:07;99397.66;;;10.78;91.26
77770;BME280;66961;51.482;9.160;2024-02-14T12:52:32;99372.34;;;10.67;92.40
77770;BME280;66961;51.482;9.160;2024-02-14T12:54:58;99391.06;;;10.66;92.53
77770;BME280;66961;51.482;9.160;2024-02-14T12:57:23;99391.06;;;10.66;93.28
77770;BME280;66961;51.482;9.160;2024-02-14T12:59:48;99385.63;;;10.59;93.13
77770;BME280;66961;51.482;9.160;2024-02-14T13:02:13;99374.72;;;10.54;93.84